Terminal Aerodrome Forecast
Issued by NWS

Home | Current Version | Previous Version | Text Only | Print | Product List | Glossary On
Versions: 1 2 3 4 5 6 7 8 9 10 11 12 13
000
FTUS46 KSGX 280600 AAA
TAFONT
TAF AMD
KONT 280650Z 2807/2912 26007KT P6SM -SHRA SCT080 BKN150 BKN250
     FM281000 VRB05KT P6SM FEW100 BKN150 BKN250
     FM282100 25013KT P6SM BKN100
     FM290400 25006KT P6SM SCT150=

USA.gov is the U.S. government's official web portal to all federal, state and local government web resources and services.